Time;durP1;ratioP1;P1;durP2;ratioP2;P2;SDS_P1;SDS_P2;PMS_P1;PMS_P2;Temp;Humidity;BMP_temperature;BMP_pressure;BME280_temperature;BME280_humidity;BME280_pressure;Samples;Min_cycle;Max_cycle;Signal;HPM_P1;HPM_P2
2021/04/17 00:01:03;;;;;;;16.60;11.07;;;;;;;7.35;100.00;103215.50;5051129;28;20048;-67
2021/04/17 00:03:33;;;;;;;16.48;11.70;;;;;;;7.32;100.00;103205.81;5050957;28;20044;-67
2021/04/17 00:05:58;;;;;;;18.10;13.02;;;;;;;7.31;100.00;103209.56;5050667;28;20045;-67
2021/04/17 00:08:24;;;;;;;18.45;12.48;;;;;;;7.27;100.00;103208.16;5051077;28;20064;-67
2021/04/17 00:10:49;;;;;;;16.13;12.85;;;;;;;7.23;100.00;103213.06;5051010;28;20043;-66
2021/04/17 00:13:15;;;;;;;26.55;14.13;;;;;;;7.20;100.00;103205.25;5051078;28;20047;-66
2021/04/17 00:15:41;;;;;;;21.63;14.43;;;;;;;7.17;100.00;103208.28;5050906;28;20066;-67
2021/04/17 00:18:07;;;;;;;22.23;13.60;;;;;;;7.13;100.00;103209.63;5050824;28;20120;-65
2021/04/17 00:20:33;;;;;;;18.65;13.02;;;;;;;7.10;100.00;103200.94;5049613;28;20044;-65
2021/04/17 00:22:58;;;;;;;20.45;12.57;;;;;;;7.05;100.00;103200.56;5050878;28;20037;-67
2021/04/17 00:25:24;;;;;;;16.45;11.85;;;;;;;7.00;100.00;103198.34;5050794;28;20076;-66
2021/04/17 00:27:49;;;;;;;15.18;11.95;;;;;;;6.96;100.00;103194.25;5050769;28;20037;-68
2021/04/17 00:30:15;;;;;;;24.10;12.93;;;;;;;6.91;100.00;103194.72;5049496;28;20040;-66
2021/04/17 00:32:41;;;;;;;16.63;11.85;;;;;;;6.89;100.00;103199.47;5050799;28;20399;-67
2021/04/17 00:35:07;;;;;;;19.73;13.32;;;;;;;6.87;100.00;103193.34;5050598;28;20041;-67
2021/04/17 00:37:33;;;;;;;21.27;12.15;;;;;;;6.87;100.00;103200.63;5050458;28;20052;-68
2021/04/17 00:39:58;;;;;;;18.38;12.48;;;;;;;6.85;100.00;103203.50;5050612;28;20040;-66
2021/04/17 00:42:24;;;;;;;17.38;12.00;;;;;;;6.82;100.00;103187.53;5050711;28;20498;-66
2021/04/17 00:44:50;;;;;;;16.55;11.80;;;;;;;6.81;100.00;103191.28;5050464;28;20043;-65
2021/04/17 00:47:16;;;;;;;19.33;12.35;;;;;;;6.79;100.00;103193.28;5050589;28;20067;-65
2021/04/17 00:49:42;;;;;;;18.85;12.10;;;;;;;6.78;100.00;103183.44;5050580;28;20472;-68
2021/04/17 00:52:08;;;;;;;19.35;12.85;;;;;;;6.79;100.00;103187.88;5050473;28;20049;-67
2021/04/17 00:54:34;;;;;;;19.40;13.77;;;;;;;6.80;100.00;103188.72;5050488;28;20051;-66
2021/04/17 00:57:00;;;;;;;22.40;13.88;;;;;;;6.78;100.00;103186.16;5050452;28;20041;-68
2021/04/17 00:59:26;;;;;;;14.75;12.20;;;;;;;6.77;100.00;103178.13;5050931;28;20037;-67
2021/04/17 01:01:52;;;;;;;17.80;13.25;;;;;;;6.72;100.00;103186.78;5050448;28;20403;-67
2021/04/17 01:04:26;;;;;;;17.80;11.68;;;;;;;6.66;100.00;103179.28;5050329;28;20064;-66
2021/04/17 01:07:03;;;;;;;21.52;12.15;;;;;;;6.59;100.00;103179.03;5049164;28;20029;-68
2021/04/17 01:09:44;;;;;;;19.05;11.43;;;;;;;6.54;100.00;103177.81;5050490;28;20083;-66
2021/04/17 01:12:30;;;;;;;16.83;11.25;;;;;;;6.49;100.00;103172.03;5050549;28;20071;-66
2021/04/17 01:14:57;;;;;;;19.88;11.32;;;;;;;6.46;100.00;103175.06;5050291;28;20075;-68
2021/04/17 01:17:24;;;;;;;17.98;11.50;;;;;;;6.42;100.00;103173.66;5050223;28;20522;-69
2021/04/17 01:20:02;;;;;;;21.58;12.10;;;;;;;6.38;100.00;103170.41;5054068;28;20071;-66
2021/04/17 01:22:29;;;;;;;19.85;13.05;;;;;;;6.35;100.00;103168.84;5052782;28;20127;-67
2021/04/17 01:25:09;;;;;;;19.55;11.63;;;;;;;6.32;100.00;103166.47;5053959;28;20045;-66
2021/04/17 01:27:36;;;;;;;20.75;12.65;;;;;;;6.28;100.00;103167.78;5054141;28;20391;-66
2021/04/17 01:30:11;;;;;;;21.40;12.30;;;;;;;6.25;100.00;103168.13;5054032;28;20060;-67
2021/04/17 01:32:38;;;;;;;20.33;11.73;;;;;;;6.25;100.00;103172.69;5053895;28;20037;-67
2021/04/17 01:35:07;;;;;;;18.25;11.85;;;;;;;6.23;100.00;103170.09;5053879;28;20110;-67
2021/04/17 01:37:51;;;;;;;19.15;13.05;;;;;;;6.21;100.00;103166.69;5053598;28;20484;-67
2021/04/17 01:40:20;;;;;;;15.60;11.98;;;;;;;6.18;100.00;103166.16;5053859;28;20483;-68
2021/04/17 01:42:46;;;;;;;23.77;12.82;;;;;;;6.13;100.00;103169.34;5053817;28;20214;-65
2021/04/17 01:45:17;;;;;;;18.55;12.40;;;;;;;6.09;100.00;103159.81;5053666;28;20036;-69
2021/04/17 01:47:46;;;;;;;20.92;13.45;;;;;;;6.04;100.00;103164.84;5053799;28;20399;-66
2021/04/17 01:50:13;;;;;;;18.15;12.02;;;;;;;6.03;100.00;103172.13;5053656;28;20041;-67
2021/04/17 01:52:41;;;;;;;21.65;14.18;;;;;;;6.01;100.00;103181.44;5053710;28;20037;-68
2021/04/17 01:55:08;;;;;;;20.85;14.18;;;;;;;5.96;100.00;103172.91;5053430;28;20041;-67
2021/04/17 01:57:36;;;;;;;25.08;13.25;;;;;;;5.93;100.00;103174.09;5053455;28;20036;-68
2021/04/17 02:00:04;;;;;;;20.25;14.20;;;;;;;5.93;100.00;103178.66;5053539;28;20079;-66
2021/04/17 02:02:30;;;;;;;22.38;14.60;;;;;;;5.93;100.00;103173.25;5053313;28;20387;-67
2021/04/17 02:04:58;;;;;;;20.27;14.30;;;;;;;5.93;100.00;103178.66;5052159;28;20554;-65
2021/04/17 02:07:23;;;;;;;24.88;14.90;;;;;;;5.90;100.00;103173.50;5053459;28;20141;-66
2021/04/17 02:09:49;;;;;;;17.98;13.68;;;;;;;5.87;100.00;103173.78;5053295;28;20110;-66
2021/04/17 02:12:15;;;;;;;20.17;14.00;;;;;;;5.82;100.00;103173.41;5053338;28;20587;-66
2021/04/17 02:14:42;;;;;;;20.75;13.27;;;;;;;5.79;100.00;103176.44;5052997;28;20056;-66
2021/04/17 02:17:13;;;;;;;28.15;15.13;;;;;;;5.74;100.00;103168.78;5053010;28;20482;-66
2021/04/17 02:20:04;;;;;;;20.27;13.52;;;;;;;5.69;100.00;103166.50;5053114;28;20483;-68
2021/04/17 02:22:31;;;;;;;23.08;14.07;;;;;;;5.66;100.00;103172.22;5052998;28;20036;-68
2021/04/17 02:24:57;;;;;;;22.65;13.35;;;;;;;5.61;100.00;103174.56;5052881;28;20163;-66
2021/04/17 02:27:23;;;;;;;22.20;13.95;;;;;;;5.57;100.00;103172.31;5052910;28;20090;-67
2021/04/17 02:29:53;;;;;;;24.73;14.63;;;;;;;5.53;100.00;103171.75;5052560;28;20049;-66
2021/04/17 02:32:19;;;;;;;26.00;14.18;;;;;;;5.51;100.00;103171.03;5052889;28;20574;-67
2021/04/17 02:34:45;;;;;;;20.42;14.68;;;;;;;5.49;100.00;103164.91;5052627;28;20045;-66
2021/04/17 02:37:12;;;;;;;26.88;14.90;;;;;;;5.49;100.00;103172.19;5052603;28;20130;-67
2021/04/17 02:39:38;;;;;;;21.90;15.07;;;;;;;5.47;100.00;103166.94;5052731;28;20033;-66
2021/04/17 02:42:05;;;;;;;19.00;14.35;;;;;;;5.43;100.00;103154.69;5053089;28;20131;-68
2021/04/17 02:44:30;;;;;;;19.17;14.13;;;;;;;5.41;100.00;103165.69;5052420;28;20045;-65
2021/04/17 02:46:56;;;;;;;18.98;13.90;;;;;;;5.38;100.00;103162.41;5052770;28;20494;-67
2021/04/17 02:49:22;;;;;;;21.55;14.65;;;;;;;5.36;100.00;103159.00;5051195;28;20442;-66
2021/04/17 02:51:47;;;;;;;21.80;13.82;;;;;;;5.35;100.00;103157.28;5052655;28;20044;-67
2021/04/17 02:54:13;;;;;;;18.48;13.75;;;;;;;5.32;100.00;103163.00;5052308;28;20063;-67
2021/04/17 02:56:39;;;;;;;21.13;13.57;;;;;;;5.30;100.00;103160.47;5052251;28;20041;-66
2021/04/17 02:59:04;;;;;;;21.05;13.95;;;;;;;5.28;100.00;103159.75;5052316;28;20048;-69
2021/04/17 03:01:30;;;;;;;20.98;14.75;;;;;;;5.26;100.00;103158.22;5052293;28;20127;-66
2021/04/17 03:03:55;;;;;;;18.52;13.73;;;;;;;5.23;100.00;103163.94;5052123;28;20041;-66
2021/04/17 03:06:21;;;;;;;20.30;14.27;;;;;;;5.19;100.00;103151.66;5052287;28;20446;-66
2021/04/17 03:08:47;;;;;;;21.85;13.77;;;;;;;5.17;100.00;103164.50;5052133;28;20037;-68
2021/04/17 03:11:13;;;;;;;20.27;13.05;;;;;;;5.17;100.00;103173.50;5052144;28;20033;-67
2021/04/17 03:13:39;;;;;;;23.05;14.18;;;;;;;5.17;100.00;103164.50;5052121;28;20476;-67
2021/04/17 03:16:05;;;;;;;24.48;14.55;;;;;;;5.17;100.00;103170.78;5051984;28;20037;-68
2021/04/17 03:18:31;;;;;;;22.88;15.30;;;;;;;5.19;100.00;103167.91;5052000;28;20044;-68
2021/04/17 03:20:56;;;;;;;23.23;14.68;;;;;;;5.19;100.00;103165.22;5052031;28;20040;-67
2021/04/17 03:23:22;;;;;;;19.33;14.30;;;;;;;5.18;100.00;103166.22;5051818;28;20080;-67
2021/04/17 03:25:48;;;;;;;24.80;14.57;;;;;;;5.15;100.00;103168.22;5051811;28;20039;-67
2021/04/17 03:28:13;;;;;;;23.30;13.57;;;;;;;5.11;100.00;103161.41;5051832;28;20041;-66
2021/04/17 03:30:39;;;;;;;23.60;14.55;;;;;;;5.09;100.00;103163.41;5051961;28;20048;-66
2021/04/17 03:33:04;;;;;;;24.90;15.45;;;;;;;5.06;100.00;103169.13;5066892;28;20049;-66
2021/04/17 03:35:32;;;;;;;29.13;15.73;;;;;;;5.06;100.00;103162.88;5051385;28;20041;-66
2021/04/17 03:37:58;;;;;;;22.75;14.30;;;;;;;5.04;100.00;103160.31;5051616;28;20044;-67
2021/04/17 03:40:24;;;;;;;20.58;14.63;;;;;;;5.04;100.00;103168.44;5050940;28;20044;-68
2021/04/17 03:42:50;;;;;;;20.13;14.18;;;;;;;5.03;100.00;103174.84;5051477;28;20139;-64
2021/04/17 03:45:17;;;;;;;22.77;14.80;;;;;;;5.02;100.00;103166.84;5051356;28;20554;-66
2021/04/17 03:47:43;;;;;;;23.92;14.82;;;;;;;5.01;100.00;103166.00;5051459;28;20501;-67
2021/04/17 03:50:10;;;;;;;25.38;15.38;;;;;;;5.02;100.00;103167.72;5051334;28;20042;-66
2021/04/17 03:52:36;;;;;;;20.95;14.63;;;;;;;5.01;100.00;103171.41;5050033;28;20451;-66
2021/04/17 03:55:05;;;;;;;22.50;13.90;;;;;;;5.02;100.00;103167.72;5051210;28;20107;-67
2021/04/17 03:57:30;;;;;;;22.00;13.77;;;;;;;5.01;100.00;103166.00;5051307;28;20037;-66
2021/04/17 03:59:56;;;;;;;24.88;14.88;;;;;;;4.99;100.00;103162.59;5051282;28;20144;-66
2021/04/17 04:02:22;;;;;;;23.15;15.45;;;;;;;4.98;100.00;103166.31;5051214;28;20064;-67
2021/04/17 04:04:47;;;;;;;24.35;15.02;;;;;;;4.97;100.00;103174.56;5050986;28;20033;-65
2021/04/17 04:07:13;;;;;;;22.48;13.45;;;;;;;4.94;100.00;103164.91;5050089;28;20037;-67
2021/04/17 04:09:38;;;;;;;23.10;14.82;;;;;;;4.92;100.00;103161.50;5049738;28;20037;-68
2021/04/17 04:12:06;;;;;;;19.88;13.18;;;;;;;4.91;100.00;103165.19;5051148;28;20454;-68
2021/04/17 04:14:32;;;;;;;22.05;13.95;;;;;;;4.90;100.00;103163.50;5050891;28;20041;-65
2021/04/17 04:16:57;;;;;;;22.00;14.10;;;;;;;4.89;100.00;103166.34;5051230;28;20036;-65
2021/04/17 04:19:23;;;;;;;20.45;14.13;;;;;;;4.86;100.00;103156.69;5049582;28;20063;-66
2021/04/17 04:21:49;;;;;;;21.98;13.98;;;;;;;4.85;100.00;103154.94;5050936;28;20040;-65
2021/04/17 04:24:15;;;;;;;20.73;15.48;;;;;;;4.82;100.00;103166.06;5050677;28;20045;-67
2021/04/17 04:26:40;;;;;;;21.90;14.50;;;;;;;4.81;100.00;103161.66;5050972;28;20041;-68
2021/04/17 04:29:06;;;;;;;23.85;14.18;;;;;;;4.80;100.00;103162.66;5050825;28;20045;-65
2021/04/17 04:31:32;;;;;;;25.48;14.43;;;;;;;4.76;100.00;103156.69;5050844;28;20105;-67
2021/04/17 04:33:58;;;;;;;23.30;15.05;;;;;;;4.74;100.00;103168.69;5050627;28;20117;-67
2021/04/17 04:36:24;;;;;;;20.92;13.77;;;;;;;4.70;100.00;103167.28;5050281;28;20081;-67
2021/04/17 04:38:49;;;;;;;26.10;14.40;;;;;;;4.65;100.00;103169.53;5050550;28;20069;-68
2021/04/17 04:41:15;;;;;;;24.80;15.85;;;;;;;4.62;100.00;103159.00;5050744;28;20048;-66
2021/04/17 04:43:41;;;;;;;23.42;14.55;;;;;;;4.59;100.00;103167.44;5050607;28;20045;-66
2021/04/17 04:46:07;;;;;;;22.65;14.70;;;;;;;4.58;100.00;103165.72;5050749;28;20033;-66
2021/04/17 04:48:32;;;;;;;25.35;15.48;;;;;;;4.57;100.00;103172.13;5050626;28;20040;-65
2021/04/17 04:50:58;;;;;;;21.52;14.45;;;;;;;4.54;100.00;103174.13;5050572;28;20045;-68
2021/04/17 04:53:24;;;;;;;22.00;13.52;;;;;;;4.52;100.00;103170.72;5053749;28;20037;-67
2021/04/17 04:55:50;;;;;;;20.15;14.00;;;;;;;4.50;100.00;103161.88;5054469;28;20064;-66
2021/04/17 04:58:15;;;;;;;24.05;14.55;;;;;;;4.50;100.00;103161.88;5054701;28;20037;-67
2021/04/17 05:00:42;;;;;;;26.27;14.80;;;;;;;4.47;100.00;103156.75;5054676;28;20487;-67
2021/04/17 05:03:07;;;;;;;25.98;14.80;;;;;;;4.45;100.00;103166.03;5054936;28;20041;-66
2021/04/17 05:05:34;;;;;;;22.60;15.20;;;;;;;4.44;100.00;103176.00;5054458;28;20048;-67
2021/04/17 05:08:00;;;;;;;24.27;14.82;;;;;;;4.41;100.00;103176.28;5054357;28;20479;-65
2021/04/17 05:10:26;;;;;;;25.73;15.73;;;;;;;4.37;100.00;103166.75;5054405;28;20048;-66
2021/04/17 05:12:51;;;;;;;23.30;15.23;;;;;;;4.34;100.00;103167.06;5054325;28;20546;-67
2021/04/17 05:15:17;;;;;;;26.05;15.80;;;;;;;4.33;100.00;103173.44;5054446;28;20123;-68
2021/04/17 05:17:43;;;;;;;26.33;15.50;;;;;;;4.33;100.00;103172.56;5054215;28;20125;-66
2021/04/17 05:20:08;;;;;;;24.95;15.90;;;;;;;4.32;100.00;103169.03;5054267;28;20426;-65
2021/04/17 05:22:34;;;;;;;25.05;15.88;;;;;;;4.34;100.00;103171.56;5054124;28;20448;-65
2021/04/17 05:25:00;;;;;;;22.13;15.13;;;;;;;4.35;100.00;103171.47;5054006;28;20041;-68
2021/04/17 05:27:26;;;;;;;26.35;15.80;;;;;;;4.34;100.00;103161.63;5054121;28;20057;-66
2021/04/17 05:29:51;;;;;;;25.02;15.20;;;;;;;4.33;100.00;103164.47;5054022;28;20064;-67
2021/04/17 05:32:17;;;;;;;35.58;15.27;;;;;;;4.32;100.00;103163.59;5054125;28;20434;-66
2021/04/17 05:34:43;;;;;;;21.95;16.17;;;;;;;4.34;100.00;103166.16;5053874;28;20430;-67
2021/04/17 05:37:09;;;;;;;22.10;15.35;;;;;;;4.35;100.00;103163.34;5052488;28;20057;-67
2021/04/17 05:39:34;;;;;;;25.65;15.32;;;;;;;4.36;100.00;103162.34;5053813;28;20033;-68
2021/04/17 05:42:00;;;;;;;22.40;14.68;;;;;;;4.36;100.00;103170.47;5053864;28;20037;-67
2021/04/17 05:44:26;;;;;;;25.38;14.75;;;;;;;4.33;100.00;103161.75;5053654;28;20564;-66
2021/04/17 05:46:52;;;;;;;22.20;14.52;;;;;;;4.32;100.00;103171.72;5053990;28;20033;-65
2021/04/17 05:49:17;;;;;;;22.38;15.07;;;;;;;4.28;100.00;103167.59;5053838;28;20037;-67
2021/04/17 05:51:44;;;;;;;23.13;13.73;;;;;;;4.30;100.00;103168.31;5052433;28;20037;-68
2021/04/17 05:54:11;;;;;;;24.92;14.40;;;;;;;4.29;100.00;103169.31;5053572;28;20048;-64
2021/04/17 05:56:37;;;;;;;22.48;14.25;;;;;;;4.29;100.00;103172.03;5053461;28;20036;-66
2021/04/17 05:59:04;;;;;;;21.00;13.75;;;;;;;4.28;100.00;103173.03;5053473;28;20088;-67
2021/04/17 06:01:31;;;;;;;23.80;14.32;;;;;;;4.28;100.00;103166.75;5053464;28;20033;-66
2021/04/17 06:03:56;;;;;;;19.05;13.52;;;;;;;4.30;100.00;103170.16;5052622;28;20044;-65
2021/04/17 06:06:22;;;;;;;21.77;14.13;;;;;;;4.31;100.00;103167.31;5052035;28;20041;-68
2021/04/17 06:08:48;;;;;;;19.13;13.35;;;;;;;4.31;100.00;103161.06;5053754;28;20033;-67
2021/04/17 06:11:14;;;;;;;23.88;15.35;;;;;;;4.30;100.00;103160.19;5053304;28;20044;-67
2021/04/17 06:13:40;;;;;;;21.30;13.18;;;;;;;4.32;100.00;103160.91;5053140;28;20037;-68
2021/04/17 06:16:06;;;;;;;19.02;13.57;;;;;;;4.35;100.00;103160.66;5053074;28;20044;-68
2021/04/17 06:18:41;;;;;;;21.58;13.55;;;;;;;4.37;100.00;103164.06;5053540;28;20055;-66
2021/04/17 06:21:07;;;;;;;21.95;14.75;;;;;;;4.40;100.00;103150.22;5053248;28;20041;-66
2021/04/17 06:23:35;;;;;;;21.08;13.82;;;;;;;4.42;100.00;103159.06;5052927;28;20047;-66
2021/04/17 06:26:02;;;;;;;24.55;14.15;;;;;;;4.46;100.00;103163.16;5053184;28;20076;-67
2021/04/17 06:28:29;;;;;;;25.27;15.38;;;;;;;4.49;100.00;103159.31;5053105;28;20049;-66
2021/04/17 06:30:55;;;;;;;23.23;15.30;;;;;;;4.51;100.00;103160.91;5051718;28;20041;-66
2021/04/17 06:33:23;;;;;;;24.02;16.45;;;;;;;4.55;100.00;103156.03;5052774;28;20040;-67
2021/04/17 06:35:48;;;;;;;27.58;14.63;;;;;;;4.61;100.00;103154.59;5051558;28;20048;-68
2021/04/17 06:38:15;;;;;;;18.92;13.43;;;;;;;4.64;100.00;103157.84;5052966;28;20048;-66
2021/04/17 06:40:45;;;;;;;21.75;13.85;;;;;;;4.69;100.00;103160.16;5052982;28;20037;-67
2021/04/17 06:43:11;;;;;;;21.65;13.43;;;;;;;4.73;100.00;103156.16;5052986;28;20047;-66
2021/04/17 06:45:38;;;;;;;20.20;13.23;;;;;;;4.76;100.00;103154.00;5051425;28;20041;-67
2021/04/17 06:48:10;;;;;;;20.38;12.27;;;;;;;4.82;100.00;103163.38;5052739;28;20057;-67
2021/04/17 06:50:38;;;;;;;20.05;12.63;;;;;;;4.86;100.00;103148.56;5052719;28;20041;-67
2021/04/17 06:53:08;;;;;;;19.33;12.00;;;;;;;4.94;100.00;103153.22;5052730;28;20167;-67
2021/04/17 06:55:35;;;;;;;19.85;12.02;;;;;;;4.98;100.00;103143.78;5052572;28;20400;-65
2021/04/17 06:58:01;;;;;;;13.68;10.93;;;;;;;5.03;100.00;103147.78;5052722;28;20075;-67
2021/04/17 07:00:28;;;;;;;18.15;11.13;;;;;;;5.10;100.00;103150.72;5052395;28;20549;-67
2021/04/17 07:02:53;;;;;;;16.98;11.60;;;;;;;5.18;100.00;103149.97;5052211;28;20072;-64
2021/04/17 07:05:20;;;;;;;18.65;12.23;;;;;;;5.24;100.00;103136.69;5052246;28;20511;-68
2021/04/17 07:07:46;;;;;;;20.00;11.02;;;;;;;5.32;100.00;103152.19;5050984;28;20033;-66
2021/04/17 07:10:13;;;;;;;18.50;11.55;;;;;;;5.40;100.00;103141.44;5051059;28;20394;-67
2021/04/17 07:12:41;;;;;;;17.90;11.82;;;;;;;5.49;100.00;103142.38;5052302;28;20262;-67
2021/04/17 07:15:08;;;;;;;17.50;12.00;;;;;;;5.56;100.00;103144.34;5051364;28;20136;-65
2021/04/17 07:17:36;;;;;;;14.77;11.40;;;;;;;5.63;100.00;103148.13;5051796;28;20103;-66
2021/04/17 07:20:09;;;;;;;18.08;12.18;;;;;;;5.73;100.00;103146.22;5050826;28;20388;-67
2021/04/17 07:22:37;;;;;;;16.73;11.93;;;;;;;5.83;100.00;103139.84;5052236;28;20045;-65
2021/04/17 07:25:06;;;;;;;17.85;11.27;;;;;;;5.90;100.00;103146.38;5052006;28;20082;-68
2021/04/17 07:27:53;;;;;;;16.00;12.20;;;;;;;5.99;100.00;103145.47;5052078;28;20128;-66
2021/04/17 07:30:19;;;;;;;14.52;10.70;;;;;;;6.07;100.00;103140.09;5051899;28;20402;-68
2021/04/17 07:33:03;;;;;;;15.73;10.23;;;;;;;6.12;100.00;103145.94;5051837;28;20122;-68
2021/04/17 07:35:53;;;;;;;18.05;12.07;;;;;;;6.21;100.00;103160.41;5051533;28;20052;-68
2021/04/17 07:38:21;;;;;;;15.13;11.38;;;;;;;6.31;100.00;103156.63;5051572;28;20048;-68
2021/04/17 07:41:04;;;;;;;18.30;11.65;;;;;;;6.44;100.00;103149.94;5051508;28;20033;-65
2021/04/17 07:43:58;;;;;;;17.33;11.80;;;;;;;6.55;100.00;103146.94;5051628;28;20120;-65
2021/04/17 07:46:42;;;;;;;19.63;12.07;;;;;;;6.67;100.00;103151.09;5051546;28;20573;-67
2021/04/17 07:49:15;;;;;;;16.77;12.15;;;;;;;6.78;100.00;103147.28;5051264;28;20036;-67
2021/04/17 07:52:11;;;;;;;19.08;11.70;;;;;;;6.86;100.00;103155.47;5051231;28;20043;-67
2021/04/17 07:54:59;;;;;;;17.27;10.98;;;;;;;6.96;100.00;103156.22;5050958;28;20033;-65
2021/04/17 07:57:45;;;;;;;15.43;11.60;;;;;;;7.05;100.00;103148.94;5053348;28;20051;-66
2021/04/17 08:00:16;;;;;;;17.83;11.38;;;;;;;7.14;100.00;103147.97;5051132;28;20057;-67
2021/04/17 08:02:45;;;;;;;16.35;10.95;;;;;;;7.22;100.00;103148.00;5051260;28;20550;-66
2021/04/17 08:05:12;;;;;;;15.32;10.60;;;;;;;7.30;100.00;103153.50;5050805;28;20379;-67
2021/04/17 08:07:38;;;;;;;14.18;10.98;;;;;;;7.42;100.00;103156.72;5051018;28;20490;-68
2021/04/17 08:10:07;;;;;;;17.00;11.15;;;;;;;7.51;100.00;103151.16;5050904;28;20033;-65
2021/04/17 08:12:40;;;;;;;15.90;10.88;;;;;;;7.63;100.00;103154.41;5051131;28;20198;-68
2021/04/17 08:15:10;;;;;;;17.77;11.18;;;;;;;7.78;100.00;103157.34;5050872;28;20025;-68
2021/04/17 08:17:43;;;;;;;14.63;10.30;;;;;;;7.89;100.00;103151.59;5050959;28;20041;-67
2021/04/17 08:20:12;;;;;;;15.80;10.23;;;;;;;8.03;100.00;103145.50;5051138;28;20033;-66
2021/04/17 08:22:39;;;;;;;15.25;10.18;;;;;;;8.15;100.00;103152.28;5050802;28;20033;-67
2021/04/17 08:25:07;;;;;;;15.02;9.20;;;;;;;8.28;100.00;103150.94;5050657;28;20114;-67
2021/04/17 08:27:34;;;;;;;15.57;9.40;;;;;;;8.39;100.00;103150.63;5050353;28;20386;-66
2021/04/17 08:30:06;;;;;;;12.38;8.90;;;;;;;8.49;100.00;103145.84;5050708;28;20064;-67
2021/04/17 08:32:37;;;;;;;11.40;9.32;;;;;;;8.60;100.00;103147.38;5050754;28;20045;-67
2021/04/17 08:35:14;;;;;;;16.15;10.38;;;;;;;8.72;100.00;103151.44;5050808;28;20035;-69
2021/04/17 08:37:50;;;;;;;11.32;9.02;;;;;;;8.79;100.00;103151.59;5050284;28;20056;-67
2021/04/17 08:40:36;;;;;;;18.73;9.55;;;;;;;8.93;100.00;103148.16;5050638;28;20391;-67
2021/04/17 08:43:11;;;;;;;11.43;9.73;;;;;;;9.06;100.00;103153.91;5050500;28;20538;-67
2021/04/17 08:46:06;;;;;;;17.05;10.02;;;;;;;9.23;100.00;103150.09;5032541;28;20068;-66
2021/04/17 08:48:45;;;;;;;12.45;9.20;;;;;;;9.39;100.00;103153.78;5050749;28;20045;-68
2021/04/17 08:51:22;;;;;;;15.13;9.82;;;;;;;9.53;100.00;103150.28;5050700;28;20040;-67
2021/04/17 08:54:11;;;;;;;12.10;9.18;;;;;;;9.66;100.00;103147.81;5050377;28;20037;-66
2021/04/17 08:56:47;;;;;;;12.73;9.45;;;;;;;9.78;100.00;103143.66;5050380;28;20118;-68
2021/04/17 08:59:36;;;;;;;12.98;8.98;;;;;;;9.92;100.00;103151.06;5050950;28;20841;-67
2021/04/17 09:02:17;;;;;;;13.70;9.07;;;;;;;10.10;100.00;103139.00;5050536;28;20040;-68
2021/04/17 09:05:06;;;;;;;15.55;8.85;;;;;;;10.26;100.00;103137.00;5050406;28;20033;-65
2021/04/17 09:07:36;;;;;;;12.73;9.25;;;;;;;10.40;100.00;103138.06;5050809;28;20040;-68
2021/04/17 09:10:32;;;;;;;12.65;8.88;;;;;;;10.60;100.00;103134.81;5050596;28;20033;-68
2021/04/17 09:13:13;;;;;;;13.65;8.98;;;;;;;10.78;100.00;103125.22;5050517;28;20531;-67
2021/04/17 09:16:03;;;;;;;10.02;8.02;;;;;;;10.97;100.00;103132.03;5050456;28;20112;-65
2021/04/17 09:18:35;;;;;;;18.15;9.35;;;;;;;11.11;100.00;103133.91;5050879;28;20043;-67
2021/04/17 09:21:04;;;;;;;21.35;10.43;;;;;;;11.18;100.00;103126.63;5050647;28;20048;-66
2021/04/17 09:23:37;;;;;;;12.73;8.55;;;;;;;11.25;100.00;103131.31;5050363;28;20064;-66
2021/04/17 09:26:03;;;;;;;11.55;9.32;;;;;;;11.32;100.00;103132.28;5049948;28;20040;-67
2021/04/17 09:28:36;;;;;;;13.15;9.10;;;;;;;11.33;100.00;103123.03;5050065;28;20040;-65
2021/04/17 09:31:03;;;;;;;10.70;8.85;;;;;;;11.37;100.00;103124.31;5050224;28;20090;-65
2021/04/17 09:33:29;;;;;;;14.77;8.90;;;;;;;11.41;100.00;103131.09;5050117;28;20040;-64
2021/04/17 09:35:55;;;;;;;13.93;9.70;;;;;;;11.48;100.00;103126.59;5049900;28;20399;-67
2021/04/17 09:38:23;;;;;;;14.85;9.30;;;;;;;11.59;100.00;103119.75;5050076;28;20057;-66
2021/04/17 09:40:54;;;;;;;13.68;8.90;;;;;;;11.68;100.00;103122.19;5053792;28;20471;-66
2021/04/17 09:43:29;;;;;;;13.05;9.27;;;;;;;11.78;100.00;103117.25;5053722;28;20033;-67
2021/04/17 09:46:00;;;;;;;13.60;9.85;;;;;;;11.94;100.00;103120.78;5053589;28;20037;-68
2021/04/17 09:48:26;;;;;;;10.13;9.05;;;;;;;12.05;100.00;103117.53;5052275;28;20048;-67
2021/04/17 09:50:56;;;;;;;13.52;9.45;;;;;;;12.15;100.00;103122.66;5053674;28;20044;-67
2021/04/17 09:53:34;;;;;;;11.38;10.18;;;;;;;12.21;100.00;103122.72;5053585;28;20516;-66
2021/04/17 09:56:03;;;;;;;14.23;9.75;;;;;;;12.28;100.00;103120.88;5053200;28;20124;-65
2021/04/17 09:58:36;;;;;;;12.02;9.15;;;;;;;12.29;100.00;103114.34;5053438;28;20033;-65
2021/04/17 10:01:08;;;;;;;12.80;9.45;;;;;;;12.29;98.65;103119.00;5053665;28;20033;-67
2021/04/17 10:03:36;;;;;;;18.08;11.05;;;;;;;12.29;99.46;103119.84;5051919;28;20452;-65
2021/04/17 10:06:04;;;;;;;12.52;10.15;;;;;;;12.36;99.28;103112.53;5053251;28;20059;-67
2021/04/17 10:08:35;;;;;;;14.82;9.95;;;;;;;12.47;98.06;103107.53;5068619;28;20037;-68
2021/04/17 10:11:03;;;;;;;16.38;10.68;;;;;;;12.56;98.01;103120.06;5053560;28;20039;-67
2021/04/17 10:13:37;;;;;;;15.35;10.30;;;;;;;12.45;100.00;103112.38;5053131;28;20036;-65
2021/04/17 10:16:04;;;;;;;15.27;11.30;;;;;;;12.30;100.00;103121.53;5053076;28;20047;-65
2021/04/17 10:18:30;;;;;;;14.73;10.95;;;;;;;12.16;100.00;103118.91;5052899;28;20033;-67
2021/04/17 10:20:56;;;;;;;14.88;11.43;;;;;;;12.08;100.00;103114.38;5052926;28;20075;-67
2021/04/17 10:23:22;;;;;;;16.15;11.35;;;;;;;12.07;100.00;103109.94;5052854;28;20068;-66
2021/04/17 10:25:47;;;;;;;16.63;11.05;;;;;;;12.11;100.00;103114.00;5052838;28;20033;-67
2021/04/17 10:28:17;;;;;;;15.35;11.13;;;;;;;12.30;100.00;103110.56;5053352;28;20489;-66
2021/04/17 10:30:46;;;;;;;15.60;11.95;;;;;;;12.33;100.00;103106.59;5052983;28;20060;-66
2021/04/17 10:33:23;;;;;;;12.05;9.93;;;;;;;12.53;100.00;103104.03;5051271;28;20040;-66
2021/04/17 10:35:51;;;;;;;14.80;11.20;;;;;;;12.67;100.00;103105.81;5052643;28;20378;-66
2021/04/17 10:38:33;;;;;;;17.38;12.15;;;;;;;12.79;100.00;103104.19;5052410;28;20053;-64
2021/04/17 10:41:01;;;;;;;18.25;11.65;;;;;;;13.05;100.00;103102.66;5051163;28;20048;-68
2021/04/17 10:43:28;;;;;;;17.52;11.50;;;;;;;13.22;100.00;103098.53;5052645;28;20033;-64
2021/04/17 10:46:00;;;;;;;14.70;10.05;;;;;;;13.37;100.00;103091.00;5052588;28;20033;-65
2021/04/17 10:48:27;;;;;;;13.95;9.93;;;;;;;13.47;100.00;103096.94;5052518;28;20040;-66
2021/04/17 10:50:59;;;;;;;12.80;9.75;;;;;;;13.31;100.00;103094.53;5050898;28;20124;-66
2021/04/17 10:53:31;;;;;;;12.30;10.00;;;;;;;13.25;100.00;103096.22;5052429;28;20509;-66
2021/04/17 10:56:18;;;;;;;12.77;9.95;;;;;;;13.00;100.00;103095.00;5052037;28;20037;-65
2021/04/17 10:58:45;;;;;;;16.73;10.55;;;;;;;12.77;100.00;103084.34;5052310;28;20079;-68
2021/04/17 11:01:22;;;;;;;14.73;11.07;;;;;;;12.56;100.00;103092.66;5052397;28;20046;-65
2021/04/17 11:03:53;;;;;;;13.57;9.85;;;;;;;12.37;100.00;103084.06;5052209;28;20081;-64
2021/04/17 11:06:24;;;;;;;12.40;9.23;;;;;;;12.29;100.00;103095.16;5052149;28;20052;-67
2021/04/17 11:09:03;;;;;;;11.77;9.57;;;;;;;12.28;100.00;103074.28;5052201;28;20068;-68
2021/04/17 11:11:29;;;;;;;15.55;8.90;;;;;;;12.37;100.00;103075.84;5052100;28;20034;-67
2021/04/17 11:14:05;;;;;;;14.75;10.00;;;;;;;12.49;100.00;103080.75;5051948;28;20059;-67
2021/04/17 11:16:39;;;;;;;13.45;8.88;;;;;;;12.93;100.00;103084.00;5052058;28;20490;-66
2021/04/17 11:19:23;;;;;;;15.67;8.97;;;;;;;12.98;100.00;103077.91;5052010;28;20047;-66